sensor_id;sensor_type;location;lat;lon;timestamp;pressure;altitude;pressure_sealevel;temperature
71564;BMP180;59391;52.504;13.438;2022-07-05T00:00:44;101496.00;;;24.20
71564;BMP180;59391;52.504;13.438;2022-07-05T00:03:10;101508.00;;;24.20
71564;BMP180;59391;52.504;13.438;2022-07-05T00:05:37;101513.00;;;24.20
71564;BMP180;59391;52.504;13.438;2022-07-05T00:08:03;101482.00;;;24.10
71564;BMP180;59391;52.504;13.438;2022-07-05T00:10:33;101508.00;;;24.10
71564;BMP180;59391;52.504;13.438;2022-07-05T00:12:59;101506.00;;;24.10
71564;BMP180;59391;52.504;13.438;2022-07-05T00:15:24;101507.00;;;24.00
71564;BMP180;59391;52.504;13.438;2022-07-05T00:17:50;101526.00;;;24.00
71564;BMP180;59391;52.504;13.438;2022-07-05T00:20:16;101496.00;;;24.00
71564;BMP180;59391;52.504;13.438;2022-07-05T00:22:42;101522.00;;;24.00
71564;BMP180;59391;52.504;13.438;2022-07-05T00:25:08;101509.00;;;24.00
71564;BMP180;59391;52.504;13.438;2022-07-05T00:27:34;101517.00;;;24.00
71564;BMP180;59391;52.504;13.438;2022-07-05T00:30:00;101507.00;;;23.90
71564;BMP180;59391;52.504;13.438;2022-07-05T00:32:25;101524.00;;;23.90
71564;BMP180;59391;52.504;13.438;2022-07-05T00:34:51;101505.00;;;23.90
71564;BMP180;59391;52.504;13.438;2022-07-05T00:37:17;101507.00;;;23.90
71564;BMP180;59391;52.504;13.438;2022-07-05T00:39:43;101522.00;;;23.90
71564;BMP180;59391;52.504;13.438;2022-07-05T00:42:09;101521.00;;;23.90
71564;BMP180;59391;52.504;13.438;2022-07-05T00:44:38;101507.00;;;23.90
71564;BMP180;59391;52.504;13.438;2022-07-05T00:47:06;101528.00;;;23.90
71564;BMP180;59391;52.504;13.438;2022-07-05T00:49:33;101518.00;;;23.80
71564;BMP180;59391;52.504;13.438;2022-07-05T00:52:00;101522.00;;;23.80
71564;BMP180;59391;52.504;13.438;2022-07-05T00:54:28;101528.00;;;23.80
71564;BMP180;59391;52.504;13.438;2022-07-05T00:56:54;101525.00;;;23.70
71564;BMP180;59391;52.504;13.438;2022-07-05T00:59:22;101531.00;;;23.70
71564;BMP180;59391;52.504;13.438;2022-07-05T01:01:47;101537.00;;;23.70
71564;BMP180;59391;52.504;13.438;2022-07-05T01:04:14;101533.00;;;23.70
71564;BMP180;59391;52.504;13.438;2022-07-05T01:06:43;101535.00;;;23.70
71564;BMP180;59391;52.504;13.438;2022-07-05T01:09:12;101525.00;;;23.70
71564;BMP180;59391;52.504;13.438;2022-07-05T01:11:40;101528.00;;;23.70
71564;BMP180;59391;52.504;13.438;2022-07-05T01:14:08;101528.00;;;23.60
71564;BMP180;59391;52.504;13.438;2022-07-05T01:16:38;101533.00;;;23.60
71564;BMP180;59391;52.504;13.438;2022-07-05T01:19:06;101520.00;;;23.60
71564;BMP180;59391;52.504;13.438;2022-07-05T01:21:43;101537.00;;;23.60
71564;BMP180;59391;52.504;13.438;2022-07-05T01:24:12;101527.00;;;23.60
71564;BMP180;59391;52.504;13.438;2022-07-05T01:26:40;101530.00;;;23.60
71564;BMP180;59391;52.504;13.438;2022-07-05T01:29:08;101537.00;;;23.60
71564;BMP180;59391;52.504;13.438;2022-07-05T01:31:37;101532.00;;;23.60
71564;BMP180;59391;52.504;13.438;2022-07-05T01:34:04;101515.00;;;23.60
71564;BMP180;59391;52.504;13.438;2022-07-05T01:36:30;101537.00;;;23.60
71564;BMP180;59391;52.504;13.438;2022-07-05T01:38:56;101529.00;;;23.60
71564;BMP180;59391;52.504;13.438;2022-07-05T01:41:22;101531.00;;;23.60
71564;BMP180;59391;52.504;13.438;2022-07-05T01:43:47;101534.00;;;23.60
71564;BMP180;59391;52.504;13.438;2022-07-05T01:46:16;101535.00;;;23.60
71564;BMP180;59391;52.504;13.438;2022-07-05T01:48:44;101513.00;;;23.60
71564;BMP180;59391;52.504;13.438;2022-07-05T01:51:20;101513.00;;;23.50
71564;BMP180;59391;52.504;13.438;2022-07-05T01:53:50;101533.00;;;23.50
71564;BMP180;59391;52.504;13.438;2022-07-05T01:56:17;101510.00;;;23.50
71564;BMP180;59391;52.504;13.438;2022-07-05T01:58:44;101510.00;;;23.50
71564;BMP180;59391;52.504;13.438;2022-07-05T02:01:11;101517.00;;;23.50
71564;BMP180;59391;52.504;13.438;2022-07-05T02:03:39;101527.00;;;23.40
71564;BMP180;59391;52.504;13.438;2022-07-05T02:06:05;101519.00;;;23.40
71564;BMP180;59391;52.504;13.438;2022-07-05T02:08:31;101522.00;;;23.40
71564;BMP180;59391;52.504;13.438;2022-07-05T02:10:57;101522.00;;;23.40
71564;BMP180;59391;52.504;13.438;2022-07-05T02:13:23;101512.00;;;23.30
71564;BMP180;59391;52.504;13.438;2022-07-05T02:15:49;101519.00;;;23.30
71564;BMP180;59391;52.504;13.438;2022-07-05T02:18:14;101521.00;;;23.30
71564;BMP180;59391;52.504;13.438;2022-07-05T02:20:41;101523.00;;;23.30
71564;BMP180;59391;52.504;13.438;2022-07-05T02:23:08;101522.00;;;23.20
71564;BMP180;59391;52.504;13.438;2022-07-05T02:25:34;101514.00;;;23.20
71564;BMP180;59391;52.504;13.438;2022-07-05T02:28:00;101519.00;;;23.20
71564;BMP180;59391;52.504;13.438;2022-07-05T02:30:26;101532.00;;;23.20
71564;BMP180;59391;52.504;13.438;2022-07-05T02:32:52;101529.00;;;23.10
71564;BMP180;59391;52.504;13.438;2022-07-05T02:35:17;101530.00;;;23.10
71564;BMP180;59391;52.504;13.438;2022-07-05T02:37:43;101532.00;;;23.00
71564;BMP180;59391;52.504;13.438;2022-07-05T02:40:11;101520.00;;;23.00
71564;BMP180;59391;52.504;13.438;2022-07-05T02:42:38;101525.00;;;23.00
71564;BMP180;59391;52.504;13.438;2022-07-05T02:45:06;101532.00;;;22.90
71564;BMP180;59391;52.504;13.438;2022-07-05T02:47:33;101524.00;;;22.90
71564;BMP180;59391;52.504;13.438;2022-07-05T02:50:07;101534.00;;;22.90
71564;BMP180;59391;52.504;13.438;2022-07-05T02:52:34;101538.00;;;22.90
71564;BMP180;59391;52.504;13.438;2022-07-05T02:55:02;101526.00;;;22.80
71564;BMP180;59391;52.504;13.438;2022-07-05T02:57:28;101518.00;;;22.80
71564;BMP180;59391;52.504;13.438;2022-07-05T02:59:55;101524.00;;;22.70
71564;BMP180;59391;52.504;13.438;2022-07-05T03:02:22;101538.00;;;22.70
71564;BMP180;59391;52.504;13.438;2022-07-05T03:04:48;101536.00;;;22.70
71564;BMP180;59391;52.504;13.438;2022-07-05T03:07:14;101547.00;;;22.60
71564;BMP180;59391;52.504;13.438;2022-07-05T03:09:40;101535.00;;;22.60
71564;BMP180;59391;52.504;13.438;2022-07-05T03:12:06;101553.00;;;22.50
71564;BMP180;59391;52.504;13.438;2022-07-05T03:14:32;101553.00;;;22.50
71564;BMP180;59391;52.504;13.438;2022-07-05T03:16:57;101563.00;;;22.50
71564;BMP180;59391;52.504;13.438;2022-07-05T03:19:23;101553.00;;;22.40
71564;BMP180;59391;52.504;13.438;2022-07-05T03:21:48;101545.00;;;22.40
71564;BMP180;59391;52.504;13.438;2022-07-05T03:24:14;101537.00;;;22.40
71564;BMP180;59391;52.504;13.438;2022-07-05T03:26:40;101546.00;;;22.30
71564;BMP180;59391;52.504;13.438;2022-07-05T03:29:06;101550.00;;;22.20
71564;BMP180;59391;52.504;13.438;2022-07-05T03:31:31;101557.00;;;22.20
71564;BMP180;59391;52.504;13.438;2022-07-05T03:33:57;101560.00;;;22.20
71564;BMP180;59391;52.504;13.438;2022-07-05T03:36:23;101560.00;;;22.20
71564;BMP180;59391;52.504;13.438;2022-07-05T03:38:49;101552.00;;;22.20
71564;BMP180;59391;52.504;13.438;2022-07-05T03:41:15;101562.00;;;22.20
71564;BMP180;59391;52.504;13.438;2022-07-05T03:43:40;101554.00;;;22.20
71564;BMP180;59391;52.504;13.438;2022-07-05T03:46:06;101568.00;;;22.10
71564;BMP180;59391;52.504;13.438;2022-07-05T03:48:33;101565.00;;;22.10
71564;BMP180;59391;52.504;13.438;2022-07-05T03:50:58;101570.00;;;22.10
71564;BMP180;59391;52.504;13.438;2022-07-05T03:53:30;101571.00;;;22.10
71564;BMP180;59391;52.504;13.438;2022-07-05T03:55:55;101585.00;;;22.10
71564;BMP180;59391;52.504;13.438;2022-07-05T03:58:21;101569.00;;;22.10
71564;BMP180;59391;52.504;13.438;2022-07-05T04:00:47;101575.00;;;22.10
71564;BMP180;59391;52.504;13.438;2022-07-05T04:03:12;101571.00;;;22.10
71564;BMP180;59391;52.504;13.438;2022-07-05T04:05:38;101592.00;;;22.10
71564;BMP180;59391;52.504;13.438;2022-07-05T04:08:05;101592.00;;;22.00
71564;BMP180;59391;52.504;13.438;2022-07-05T04:10:33;101582.00;;;22.00
71564;BMP180;59391;52.504;13.438;2022-07-05T04:12:58;101589.00;;;22.00
71564;BMP180;59391;52.504;13.438;2022-07-05T04:15:24;101574.00;;;22.00
71564;BMP180;59391;52.504;13.438;2022-07-05T04:17:56;101592.00;;;22.00
71564;BMP180;59391;52.504;13.438;2022-07-05T04:20:23;101602.00;;;22.00
71564;BMP180;59391;52.504;13.438;2022-07-05T04:22:51;101561.00;;;22.00
71564;BMP180;59391;52.504;13.438;2022-07-05T04:25:18;101617.00;;;22.00
71564;BMP180;59391;52.504;13.438;2022-07-05T04:27:53;101598.00;;;22.10
71564;BMP180;59391;52.504;13.438;2022-07-05T04:30:28;101616.00;;;22.00
71564;BMP180;59391;52.504;13.438;2022-07-05T04:33:03;101553.00;;;22.10
71564;BMP180;59391;52.504;13.438;2022-07-05T04:35:28;101595.00;;;22.10
71564;BMP180;59391;52.504;13.438;2022-07-05T04:37:56;101566.00;;;22.10
71564;BMP180;59391;52.504;13.438;2022-07-05T04:40:22;101558.00;;;22.10
71564;BMP180;59391;52.504;13.438;2022-07-05T04:42:48;101612.00;;;22.10
71564;BMP180;59391;52.504;13.438;2022-07-05T04:45:13;101593.00;;;22.10
71564;BMP180;59391;52.504;13.438;2022-07-05T04:47:39;101603.00;;;22.20
71564;BMP180;59391;52.504;13.438;2022-07-05T04:50:05;101555.00;;;22.20
71564;BMP180;59391;52.504;13.438;2022-07-05T04:52:35;101632.00;;;22.20
71564;BMP180;59391;52.504;13.438;2022-07-05T04:55:03;101605.00;;;22.20
71564;BMP180;59391;52.504;13.438;2022-07-05T04:57:40;101644.00;;;22.20
71564;BMP180;59391;52.504;13.438;2022-07-05T05:00:09;101647.00;;;22.10
71564;BMP180;59391;52.504;13.438;2022-07-05T05:02:35;101636.00;;;22.20
71564;BMP180;59391;52.504;13.438;2022-07-05T05:05:07;101615.00;;;22.30
71564;BMP180;59391;52.504;13.438;2022-07-05T05:07:36;101618.00;;;22.30
71564;BMP180;59391;52.504;13.438;2022-07-05T05:10:11;101567.00;;;22.30
71564;BMP180;59391;52.504;13.438;2022-07-05T05:12:40;101595.00;;;22.40
71564;BMP180;59391;52.504;13.438;2022-07-05T05:15:06;101638.00;;;22.40
71564;BMP180;59391;52.504;13.438;2022-07-05T05:17:37;101648.00;;;22.40
71564;BMP180;59391;52.504;13.438;2022-07-05T05:20:15;101607.00;;;22.50
71564;BMP180;59391;52.504;13.438;2022-07-05T05:22:42;101639.00;;;22.50
71564;BMP180;59391;52.504;13.438;2022-07-05T05:25:09;101603.00;;;22.50
71564;BMP180;59391;52.504;13.438;2022-07-05T05:27:41;101646.00;;;22.50
71564;BMP180;59391;52.504;13.438;2022-07-05T05:30:11;101648.00;;;22.30
71564;BMP180;59391;52.504;13.438;2022-07-05T05:32:36;101652.00;;;22.60
71564;BMP180;59391;52.504;13.438;2022-07-05T05:35:02;101661.00;;;22.70
71564;BMP180;59391;52.504;13.438;2022-07-05T05:37:28;101664.00;;;22.70
71564;BMP180;59391;52.504;13.438;2022-07-05T05:39:54;101656.00;;;22.70
71564;BMP180;59391;52.504;13.438;2022-07-05T05:42:19;101662.00;;;22.80
71564;BMP180;59391;52.504;13.438;2022-07-05T05:44:45;101665.00;;;22.80
71564;BMP180;59391;52.504;13.438;2022-07-05T05:47:13;101605.00;;;22.80
71564;BMP180;59391;52.504;13.438;2022-07-05T05:49:39;101650.00;;;22.80
71564;BMP180;59391;52.504;13.438;2022-07-05T05:52:04;101670.00;;;22.80
71564;BMP180;59391;52.504;13.438;2022-07-05T05:54:30;101669.00;;;22.90
71564;BMP180;59391;52.504;13.438;2022-07-05T05:56:56;101655.00;;;22.90
71564;BMP180;59391;52.504;13.438;2022-07-05T05:59:21;101657.00;;;22.90
71564;BMP180;59391;52.504;13.438;2022-07-05T06:01:47;101645.00;;;23.00
71564;BMP180;59391;52.504;13.438;2022-07-05T06:04:12;101670.00;;;23.00
71564;BMP180;59391;52.504;13.438;2022-07-05T06:06:38;101673.00;;;23.00
71564;BMP180;59391;52.504;13.438;2022-07-05T06:09:04;101669.00;;;23.10
71564;BMP180;59391;52.504;13.438;2022-07-05T06:11:29;101683.00;;;23.10
71564;BMP180;59391;52.504;13.438;2022-07-05T06:13:55;101684.00;;;23.20
71564;BMP180;59391;52.504;13.438;2022-07-05T06:16:21;101684.00;;;23.20
71564;BMP180;59391;52.504;13.438;2022-07-05T06:18:46;101679.00;;;23.20
71564;BMP180;59391;52.504;13.438;2022-07-05T06:21:12;101689.00;;;23.30
71564;BMP180;59391;52.504;13.438;2022-07-05T06:23:38;101696.00;;;23.30
71564;BMP180;59391;52.504;13.438;2022-07-05T06:26:04;101694.00;;;23.40
71564;BMP180;59391;52.504;13.438;2022-07-05T06:28:29;101701.00;;;23.40
71564;BMP180;59391;52.504;13.438;2022-07-05T06:30:57;101693.00;;;23.50
71564;BMP180;59391;52.504;13.438;2022-07-05T06:33:22;101705.00;;;23.50
71564;BMP180;59391;52.504;13.438;2022-07-05T06:35:48;101698.00;;;23.60
71564;BMP180;59391;52.504;13.438;2022-07-05T06:38:14;101692.00;;;23.60
71564;BMP180;59391;52.504;13.438;2022-07-05T06:40:41;101699.00;;;23.60
71564;BMP180;59391;52.504;13.438;2022-07-05T06:43:10;101707.00;;;23.70
71564;BMP180;59391;52.504;13.438;2022-07-05T06:45:36;101693.00;;;23.70
71564;BMP180;59391;52.504;13.438;2022-07-05T06:48:08;101703.00;;;23.80
71564;BMP180;59391;52.504;13.438;2022-07-05T06:50:38;101703.00;;;23.80
71564;BMP180;59391;52.504;13.438;2022-07-05T06:53:05;101705.00;;;23.90
71564;BMP180;59391;52.504;13.438;2022-07-05T06:55:31;101702.00;;;23.90
71564;BMP180;59391;52.504;13.438;2022-07-05T06:58:00;101713.00;;;23.90
71564;BMP180;59391;52.504;13.438;2022-07-05T07:00:27;101695.00;;;24.00
71564;BMP180;59391;52.504;13.438;2022-07-05T07:02:53;101702.00;;;24.00
71564;BMP180;59391;52.504;13.438;2022-07-05T07:05:20;101717.00;;;24.10
71564;BMP180;59391;52.504;13.438;2022-07-05T07:07:45;101722.00;;;24.10
71564;BMP180;59391;52.504;13.438;2022-07-05T07:10:29;101716.00;;;24.10
71564;BMP180;59391;52.504;13.438;2022-07-05T07:12:57;101712.00;;;24.20
71564;BMP180;59391;52.504;13.438;2022-07-05T07:15:23;101710.00;;;24.20
71564;BMP180;59391;52.504;13.438;2022-07-05T07:17:49;101699.00;;;24.30
71564;BMP180;59391;52.504;13.438;2022-07-05T07:20:15;101706.00;;;24.40
71564;BMP180;59391;52.504;13.438;2022-07-05T07:22:40;101706.00;;;24.40
71564;BMP180;59391;52.504;13.438;2022-07-05T07:25:09;101706.00;;;24.40
71564;BMP180;59391;52.504;13.438;2022-07-05T07:27:52;101716.00;;;24.40
71564;BMP180;59391;52.504;13.438;2022-07-05T07:30:24;101695.00;;;24.40
71564;BMP180;59391;52.504;13.438;2022-07-05T07:32:50;101694.00;;;24.60
71564;BMP180;59391;52.504;13.438;2022-07-05T07:35:16;101700.00;;;24.60
71564;BMP180;59391;52.504;13.438;2022-07-05T07:37:41;101699.00;;;24.70
71564;BMP180;59391;52.504;13.438;2022-07-05T07:40:08;101700.00;;;24.70
71564;BMP180;59391;52.504;13.438;2022-07-05T07:42:35;101688.00;;;24.80
71564;BMP180;59391;52.504;13.438;2022-07-05T07:45:01;101690.00;;;24.80
71564;BMP180;59391;52.504;13.438;2022-07-05T07:47:30;101699.00;;;24.80
71564;BMP180;59391;52.504;13.438;2022-07-05T07:49:56;101684.00;;;24.90
71564;BMP180;59391;52.504;13.438;2022-07-05T07:52:22;101699.00;;;25.00
71564;BMP180;59391;52.504;13.438;2022-07-05T07:54:47;101709.00;;;25.00
71564;BMP180;59391;52.504;13.438;2022-07-05T07:57:13;101709.00;;;25.10
71564;BMP180;59391;52.504;13.438;2022-07-05T07:59:39;101682.00;;;25.00
71564;BMP180;59391;52.504;13.438;2022-07-05T08:02:05;101693.00;;;25.20
71564;BMP180;59391;52.504;13.438;2022-07-05T08:04:30;101715.00;;;25.20
71564;BMP180;59391;52.504;13.438;2022-07-05T08:06:56;101700.00;;;25.30
71564;BMP180;59391;52.504;13.438;2022-07-05T08:09:22;101697.00;;;25.40
71564;BMP180;59391;52.504;13.438;2022-07-05T08:11:48;101699.00;;;25.50
71564;BMP180;59391;52.504;13.438;2022-07-05T08:14:16;101688.00;;;25.60
71564;BMP180;59391;52.504;13.438;2022-07-05T08:16:42;101685.00;;;25.70
71564;BMP180;59391;52.504;13.438;2022-07-05T08:19:07;101694.00;;;25.80
71564;BMP180;59391;52.504;13.438;2022-07-05T08:21:51;101697.00;;;25.90
71564;BMP180;59391;52.504;13.438;2022-07-05T08:24:17;101701.00;;;26.00
71564;BMP180;59391;52.504;13.438;2022-07-05T08:26:43;101700.00;;;26.10
71564;BMP180;59391;52.504;13.438;2022-07-05T08:29:11;101693.00;;;26.20
71564;BMP180;59391;52.504;13.438;2022-07-05T08:34:07;101699.00;;;26.30
71564;BMP180;59391;52.504;13.438;2022-07-05T08:36:33;101692.00;;;26.40
71564;BMP180;59391;52.504;13.438;2022-07-05T08:38:59;101686.00;;;26.50
71564;BMP180;59391;52.504;13.438;2022-07-05T08:41:25;101698.00;;;26.60
71564;BMP180;59391;52.504;13.438;2022-07-05T08:43:51;101701.00;;;26.70
71564;BMP180;59391;52.504;13.438;2022-07-05T08:46:25;101693.00;;;26.70
71564;BMP180;59391;52.504;13.438;2022-07-05T08:49:02;101668.00;;;26.80
71564;BMP180;59391;52.504;13.438;2022-07-05T08:51:35;101693.00;;;26.90
71564;BMP180;59391;52.504;13.438;2022-07-05T08:54:05;101688.00;;;27.00
71564;BMP180;59391;52.504;13.438;2022-07-05T08:56:34;101670.00;;;27.30
71564;BMP180;59391;52.504;13.438;2022-07-05T08:59:00;101696.00;;;28.10
71564;BMP180;59391;52.504;13.438;2022-07-05T09:01:27;101701.00;;;29.00
71564;BMP180;59391;52.504;13.438;2022-07-05T09:04:03;101685.00;;;29.60
71564;BMP180;59391;52.504;13.438;2022-07-05T09:06:33;101699.00;;;30.30
71564;BMP180;59391;52.504;13.438;2022-07-05T09:09:01;101681.00;;;31.00
71564;BMP180;59391;52.504;13.438;2022-07-05T09:11:40;101698.00;;;31.80
71564;BMP180;59391;52.504;13.438;2022-07-05T09:14:18;101703.00;;;32.60
71564;BMP180;59391;52.504;13.438;2022-07-05T09:16:45;101701.00;;;33.10
71564;BMP180;59391;52.504;13.438;2022-07-05T09:19:11;101703.00;;;33.40
71564;BMP180;59391;52.504;13.438;2022-07-05T09:21:36;101682.00;;;33.80
71564;BMP180;59391;52.504;13.438;2022-07-05T09:24:08;101690.00;;;34.30
71564;BMP180;59391;52.504;13.438;2022-07-05T09:26:42;101688.00;;;34.80
71564;BMP180;59391;52.504;13.438;2022-07-05T09:29:20;101691.00;;;35.00
71564;BMP180;59391;52.504;13.438;2022-07-05T09:31:49;101689.00;;;35.30
71564;BMP180;59391;52.504;13.438;2022-07-05T09:34:19;101690.00;;;35.50
71564;BMP180;59391;52.504;13.438;2022-07-05T09:36:56;101683.00;;;35.80
71564;BMP180;59391;52.504;13.438;2022-07-05T09:39:41;101690.00;;;36.00
71564;BMP180;59391;52.504;13.438;2022-07-05T09:42:11;101692.00;;;36.10
71564;BMP180;59391;52.504;13.438;2022-07-05T09:44:57;101672.00;;;36.40
71564;BMP180;59391;52.504;13.438;2022-07-05T09:47:27;101686.00;;;36.70
71564;BMP180;59391;52.504;13.438;2022-07-05T09:49:55;101682.00;;;36.90
71564;BMP180;59391;52.504;13.438;2022-07-05T09:52:36;101686.00;;;36.80
71564;BMP180;59391;52.504;13.438;2022-07-05T09:55:14;101696.00;;;36.30
71564;BMP180;59391;52.504;13.438;2022-07-05T09:57:47;101693.00;;;35.80
71564;BMP180;59391;52.504;13.438;2022-07-05T10:00:16;101703.00;;;35.80
71564;BMP180;59391;52.504;13.438;2022-07-05T10:02:47;101690.00;;;36.00
71564;BMP180;59391;52.504;13.438;2022-07-05T10:05:27;101695.00;;;36.20
71564;BMP180;59391;52.504;13.438;2022-07-05T10:07:58;101673.00;;;36.10
71564;BMP180;59391;52.504;13.438;2022-07-05T10:10:29;101700.00;;;36.00
71564;BMP180;59391;52.504;13.438;2022-07-05T10:13:03;101707.00;;;35.50
71564;BMP180;59391;52.504;13.438;2022-07-05T10:15:33;101699.00;;;35.50
71564;BMP180;59391;52.504;13.438;2022-07-05T10:18:09;101706.00;;;35.50
71564;BMP180;59391;52.504;13.438;2022-07-05T10:20:45;101712.00;;;34.90
71564;BMP180;59391;52.504;13.438;2022-07-05T10:23:13;101712.00;;;34.60
71564;BMP180;59391;52.504;13.438;2022-07-05T10:25:44;101679.00;;;34.70
71564;BMP180;59391;52.504;13.438;2022-07-05T10:28:15;101716.00;;;34.40
71564;BMP180;59391;52.504;13.438;2022-07-05T10:30:47;101706.00;;;34.20
71564;BMP180;59391;52.504;13.438;2022-07-05T10:33:18;101705.00;;;33.90
71564;BMP180;59391;52.504;13.438;2022-07-05T10:35:47;101691.00;;;33.90
71564;BMP180;59391;52.504;13.438;2022-07-05T10:38:14;101710.00;;;33.60
71564;BMP180;59391;52.504;13.438;2022-07-05T10:40:47;101696.00;;;33.30
71564;BMP180;59391;52.504;13.438;2022-07-05T10:43:15;101696.00;;;32.90
71564;BMP180;59391;52.504;13.438;2022-07-05T10:45:48;101696.00;;;32.90
71564;BMP180;59391;52.504;13.438;2022-07-05T10:48:18;101684.00;;;32.70
71564;BMP180;59391;52.504;13.438;2022-07-05T10:51:14;101686.00;;;32.30
71564;BMP180;59391;52.504;13.438;2022-07-05T10:58:36;101690.00;;;33.50
71564;BMP180;59391;52.504;13.438;2022-07-05T11:04:10;101695.00;;;34.00
71564;BMP180;59391;52.504;13.438;2022-07-05T11:12:01;101684.00;;;32.70
71564;BMP180;59391;52.504;13.438;2022-07-05T11:14:31;101668.00;;;32.80
71564;BMP180;59391;52.504;13.438;2022-07-05T11:17:17;101684.00;;;32.60
71564;BMP180;59391;52.504;13.438;2022-07-05T11:20:15;101678.00;;;32.70
71564;BMP180;59391;52.504;13.438;2022-07-05T11:23:11;101688.00;;;32.70
71564;BMP180;59391;52.504;13.438;2022-07-05T11:25:41;101688.00;;;32.40
71564;BMP180;59391;52.504;13.438;2022-07-05T11:28:19;101692.00;;;32.10
71564;BMP180;59391;52.504;13.438;2022-07-05T11:30:52;101653.00;;;31.70
71564;BMP180;59391;52.504;13.438;2022-07-05T11:33:39;101679.00;;;31.90
71564;BMP180;59391;52.504;13.438;2022-07-05T11:36:24;101673.00;;;32.00
71564;BMP180;59391;52.504;13.438;2022-07-05T11:39:16;101696.00;;;31.90
71564;BMP180;59391;52.504;13.438;2022-07-05T11:41:46;101683.00;;;32.20
71564;BMP180;59391;52.504;13.438;2022-07-05T11:44:14;101673.00;;;32.10
71564;BMP180;59391;52.504;13.438;2022-07-05T11:46:44;101696.00;;;32.40
71564;BMP180;59391;52.504;13.438;2022-07-05T11:49:18;101661.00;;;32.90
71564;BMP180;59391;52.504;13.438;2022-07-05T11:51:58;101675.00;;;33.20
71564;BMP180;59391;52.504;13.438;2022-07-05T11:54:31;101667.00;;;33.50
71564;BMP180;59391;52.504;13.438;2022-07-05T11:56:59;101644.00;;;33.40
71564;BMP180;59391;52.504;13.438;2022-07-05T11:59:26;101675.00;;;33.60
71564;BMP180;59391;52.504;13.438;2022-07-05T12:01:53;101614.00;;;33.40
71564;BMP180;59391;52.504;13.438;2022-07-05T12:04:30;101671.00;;;33.20
71564;BMP180;59391;52.504;13.438;2022-07-05T12:06:57;101606.00;;;33.10
71564;BMP180;59391;52.504;13.438;2022-07-05T12:09:29;101606.00;;;33.00
71564;BMP180;59391;52.504;13.438;2022-07-05T12:12:24;101648.00;;;32.80
71564;BMP180;59391;52.504;13.438;2022-07-05T12:15:09;101660.00;;;32.60
71564;BMP180;59391;52.504;13.438;2022-07-05T12:17:37;101649.00;;;32.40
71564;BMP180;59391;52.504;13.438;2022-07-05T12:20:10;101625.00;;;32.20
71564;BMP180;59391;52.504;13.438;2022-07-05T12:22:44;101654.00;;;31.90
71564;BMP180;59391;52.504;13.438;2022-07-05T12:25:30;101633.00;;;31.80
71564;BMP180;59391;52.504;13.438;2022-07-05T12:27:59;101631.00;;;31.70
71564;BMP180;59391;52.504;13.438;2022-07-05T12:30:28;101651.00;;;31.50
71564;BMP180;59391;52.504;13.438;2022-07-05T12:35:44;101628.00;;;31.20
71564;BMP180;59391;52.504;13.438;2022-07-05T12:38:17;101644.00;;;31.70
71564;BMP180;59391;52.504;13.438;2022-07-05T12:40:57;101623.00;;;32.40
71564;BMP180;59391;52.504;13.438;2022-07-05T12:43:22;101638.00;;;33.00
71564;BMP180;59391;52.504;13.438;2022-07-05T12:46:07;101632.00;;;33.30
71564;BMP180;59391;52.504;13.438;2022-07-05T12:48:38;101625.00;;;33.40
71564;BMP180;59391;52.504;13.438;2022-07-05T12:51:07;101618.00;;;33.50
71564;BMP180;59391;52.504;13.438;2022-07-05T12:53:34;101635.00;;;33.50
71564;BMP180;59391;52.504;13.438;2022-07-05T12:56:23;101641.00;;;33.20
71564;BMP180;59391;52.504;13.438;2022-07-05T12:59:12;101633.00;;;32.80
71564;BMP180;59391;52.504;13.438;2022-07-05T13:01:41;101638.00;;;32.40
71564;BMP180;59391;52.504;13.438;2022-07-05T13:04:18;101587.00;;;32.20
71564;BMP180;59391;52.504;13.438;2022-07-05T13:06:52;101616.00;;;32.00
71564;BMP180;59391;52.504;13.438;2022-07-05T13:09:31;101607.00;;;32.10
71564;BMP180;59391;52.504;13.438;2022-07-05T13:14:32;101621.00;;;32.60
71564;BMP180;59391;52.504;13.438;2022-07-05T13:16:58;101615.00;;;32.80
71564;BMP180;59391;52.504;13.438;2022-07-05T13:19:24;101622.00;;;33.00
71564;BMP180;59391;52.504;13.438;2022-07-05T13:21:49;101623.00;;;33.20
71564;BMP180;59391;52.504;13.438;2022-07-05T13:24:15;101586.00;;;33.10
71564;BMP180;59391;52.504;13.438;2022-07-05T13:26:41;101613.00;;;33.00
71564;BMP180;59391;52.504;13.438;2022-07-05T13:29:07;101591.00;;;32.80
71564;BMP180;59391;52.504;13.438;2022-07-05T13:31:32;101555.00;;;32.50
71564;BMP180;59391;52.504;13.438;2022-07-05T13:33:59;101591.00;;;32.20
71564;BMP180;59391;52.504;13.438;2022-07-05T13:36:26;101613.00;;;32.00
71564;BMP180;59391;52.504;13.438;2022-07-05T13:38:52;101587.00;;;31.80
71564;BMP180;59391;52.504;13.438;2022-07-05T13:41:18;101613.00;;;31.60
71564;BMP180;59391;52.504;13.438;2022-07-05T13:43:43;101604.00;;;31.50
71564;BMP180;59391;52.504;13.438;2022-07-05T13:46:11;101607.00;;;31.40
71564;BMP180;59391;52.504;13.438;2022-07-05T13:48:39;101599.00;;;31.30
71564;BMP180;59391;52.504;13.438;2022-07-05T13:51:05;101612.00;;;31.20
71564;BMP180;59391;52.504;13.438;2022-07-05T13:53:34;101637.00;;;31.30
71564;BMP180;59391;52.504;13.438;2022-07-05T13:56:05;101599.00;;;31.30
71564;BMP180;59391;52.504;13.438;2022-07-05T13:58:33;101581.00;;;31.30
71564;BMP180;59391;52.504;13.438;2022-07-05T14:01:01;101604.00;;;31.30
71564;BMP180;59391;52.504;13.438;2022-07-05T14:03:29;101596.00;;;31.30
71564;BMP180;59391;52.504;13.438;2022-07-05T14:05:55;101626.00;;;31.30
71564;BMP180;59391;52.504;13.438;2022-07-05T14:08:22;101612.00;;;31.30
71564;BMP180;59391;52.504;13.438;2022-07-05T14:10:54;101596.00;;;31.30
71564;BMP180;59391;52.504;13.438;2022-07-05T14:13:25;101606.00;;;31.30
71564;BMP180;59391;52.504;13.438;2022-07-05T14:16:03;101604.00;;;31.30